createdAt,value
2024-02-24T00:00:28.430Z,408.20
2024-02-24T00:01:28.438Z,464.70
2024-02-24T00:02:28.507Z,465.80
2024-02-24T00:03:28.428Z,430.80
2024-02-24T00:04:28.520Z,428.20
2024-02-24T00:05:28.481Z,471.70
2024-02-24T00:06:28.434Z,476.10
2024-02-24T00:07:28.440Z,488.30
2024-02-24T00:08:28.413Z,477.10
2024-02-24T00:09:28.428Z,482.90
2024-02-24T00:10:28.420Z,503.40
2024-02-24T00:11:28.453Z,507.60
2024-02-24T00:12:28.352Z,510.60
2024-02-24T00:13:30.116Z,479.00
2024-02-24T00:14:28.391Z,489.10
2024-02-24T00:15:28.357Z,489.80
2024-02-24T00:16:28.407Z,488.90
2024-02-24T00:17:28.382Z,497.30
2024-02-24T00:18:28.365Z,508.20
2024-02-24T00:19:28.405Z,497.30
2024-02-24T00:20:28.451Z,523.40
2024-02-24T00:21:28.683Z,490.80
2024-02-24T00:22:28.318Z,494.50
2024-02-24T00:23:28.340Z,485.40
2024-02-24T00:24:28.285Z,492.80
2024-02-24T00:25:30.170Z,495.10
2024-02-24T00:26:28.299Z,478.60
2024-02-24T00:27:28.256Z,485.80
2024-02-24T00:28:28.295Z,495.90
2024-02-24T00:29:28.309Z,541.90
2024-02-24T00:30:28.261Z,531.80
2024-02-24T00:31:28.234Z,530.60
2024-02-24T00:32:28.290Z,510.70
2024-02-24T00:33:28.328Z,534.20
2024-02-24T00:34:28.355Z,524.30
2024-02-24T00:35:28.284Z,497.00
2024-02-24T00:36:28.205Z,475.70
2024-02-24T00:37:28.230Z,499.00
2024-02-24T00:38:28.225Z,487.60
2024-02-24T00:39:28.224Z,507.20
2024-02-24T00:40:28.204Z,532.70
2024-02-24T00:41:28.267Z,458.80
2024-02-24T00:42:28.194Z,468.20
2024-02-24T00:43:28.163Z,486.20
2024-02-24T00:44:28.165Z,496.60
2024-02-24T00:45:28.176Z,487.80
2024-02-24T00:46:28.154Z,523.50
2024-02-24T00:47:28.228Z,524.30
2024-02-24T00:48:28.197Z,515.80
2024-02-24T00:49:28.181Z,517.20
2024-02-24T00:50:28.125Z,523.80
2024-02-24T00:51:28.124Z,526.90
2024-02-24T00:52:28.129Z,513.20
2024-02-24T00:53:28.170Z,502.10
2024-02-24T00:54:28.100Z,518.20
2024-02-24T00:55:28.088Z,500.40
2024-02-24T00:56:28.096Z,498.70
2024-02-24T00:57:28.098Z,488.00
2024-02-24T00:58:28.071Z,489.90
2024-02-24T00:59:28.130Z,489.90
2024-02-24T01:00:28.071Z,481.10
2024-02-24T01:01:28.137Z,481.20
2024-02-24T01:02:28.098Z,447.50
2024-02-24T01:03:28.037Z,491.30
2024-02-24T01:04:28.122Z,482.70
2024-02-24T01:05:28.124Z,498.20
2024-02-24T01:06:28.015Z,432.30
2024-02-24T01:07:28.095Z,434.90
2024-02-24T01:08:28.098Z,377.70
2024-02-24T01:09:28.155Z,438.50
2024-02-24T01:10:28.065Z,419.30
2024-02-24T01:11:28.029Z,364.10
2024-02-24T01:12:28.366Z,341.40
2024-02-24T01:13:27.997Z,318.40
2024-02-24T01:14:29.020Z,307.30
2024-02-24T01:15:28.026Z,296.20
2024-02-24T01:16:27.944Z,299.40
2024-02-24T01:17:28.039Z,296.60
2024-02-24T01:18:28.035Z,295.10
2024-02-24T01:19:27.936Z,276.90
2024-02-24T01:20:27.978Z,269.30
2024-02-24T01:21:27.949Z,272.90
2024-02-24T01:22:27.917Z,279.20
2024-02-24T01:23:27.941Z,296.70
2024-02-24T01:24:27.945Z,349.70
2024-02-24T01:25:27.904Z,385.60
2024-02-24T01:26:27.927Z,392.00
2024-02-24T01:27:27.889Z,449.40
2024-02-24T01:28:27.869Z,449.30
2024-02-24T01:29:27.963Z,446.20
2024-02-24T01:30:27.933Z,477.40
2024-02-24T01:31:27.886Z,542.30
2024-02-24T01:32:27.980Z,527.10
2024-02-24T01:33:27.904Z,522.50
2024-02-24T01:34:27.992Z,527.00
2024-02-24T01:35:27.879Z,553.10
2024-02-24T01:36:27.832Z,572.20
2024-02-24T01:37:27.807Z,571.80
2024-02-24T01:38:27.849Z,577.80
2024-02-24T01:39:27.828Z,530.00
2024-02-24T01:40:27.800Z,514.40
2024-02-24T01:41:27.839Z,512.70
2024-02-24T01:42:27.789Z,501.00
2024-02-24T01:43:27.769Z,487.10
2024-02-24T01:44:27.803Z,474.30
2024-02-24T01:45:27.789Z,472.20
2024-02-24T01:46:27.764Z,493.00
2024-02-24T01:47:27.821Z,498.50
2024-02-24T01:48:27.843Z,467.90
2024-02-24T01:49:27.836Z,475.30
2024-02-24T01:50:27.794Z,452.10
2024-02-24T01:51:27.730Z,424.90
2024-02-24T01:52:27.729Z,362.20
2024-02-24T01:53:27.738Z,331.90
2024-02-24T01:54:27.751Z,334.20
2024-02-24T01:55:27.710Z,322.40
2024-02-24T01:56:27.728Z,305.90
2024-02-24T01:57:27.725Z,400.90
2024-02-24T01:58:27.734Z,403.70
2024-02-24T01:59:27.793Z,445.20
2024-02-24T02:00:27.662Z,450.90
2024-02-24T02:01:27.654Z,454.20
2024-02-24T02:02:27.701Z,431.30
2024-02-24T02:03:27.658Z,431.90
2024-02-24T02:04:27.697Z,452.10
2024-02-24T02:05:27.715Z,442.80
2024-02-24T02:06:27.679Z,414.00
2024-02-24T02:07:27.678Z,363.40
2024-02-24T02:08:27.646Z,331.80
2024-02-24T02:09:28.640Z,301.90
2024-02-24T02:10:27.588Z,286.80
2024-02-24T02:11:27.653Z,263.30
2024-02-24T02:12:27.745Z,263.00
2024-02-24T02:13:27.661Z,280.20
2024-02-24T02:14:27.633Z,307.90
2024-02-24T02:15:27.564Z,330.00
2024-02-24T02:16:27.576Z,349.10
2024-02-24T02:17:27.620Z,368.40
2024-02-24T02:18:29.634Z,324.00
2024-02-24T02:19:27.584Z,342.40
2024-02-24T02:20:27.581Z,379.40
2024-02-24T02:21:28.169Z,365.20
2024-02-24T02:22:27.519Z,371.40
2024-02-24T02:23:27.611Z,343.30
2024-02-24T02:24:27.547Z,349.60
2024-02-24T02:25:27.542Z,372.40
2024-02-24T02:26:27.545Z,363.60
2024-02-24T02:27:27.500Z,338.30
2024-02-24T02:28:27.487Z,341.00
2024-02-24T02:29:27.552Z,341.70
2024-02-24T02:30:27.470Z,332.20
2024-02-24T02:31:28.306Z,332.80
2024-02-24T02:32:27.532Z,340.00
2024-02-24T02:33:27.609Z,360.50
2024-02-24T02:34:27.484Z,411.80
2024-02-24T02:35:27.509Z,463.20
2024-02-24T02:36:27.453Z,459.50
2024-02-24T02:37:27.470Z,475.10
2024-02-24T02:38:27.456Z,527.00
2024-02-24T02:39:27.422Z,525.10
2024-02-24T02:40:27.460Z,532.00
2024-02-24T02:41:27.421Z,531.30
2024-02-24T02:42:27.368Z,529.90
2024-02-24T02:43:27.379Z,529.80
2024-02-24T02:44:27.395Z,522.60
2024-02-24T02:45:27.384Z,521.60
2024-02-24T02:46:27.393Z,520.90
2024-02-24T02:47:27.485Z,524.60
2024-02-24T02:48:27.476Z,532.00
2024-02-24T02:49:28.373Z,534.60
2024-02-24T02:50:27.441Z,539.20
2024-02-24T02:51:27.325Z,537.30
2024-02-24T02:52:27.326Z,520.60
2024-02-24T02:53:27.355Z,476.70
2024-02-24T02:54:27.317Z,470.90
2024-02-24T02:55:27.393Z,457.60
2024-02-24T02:56:27.366Z,471.10
2024-02-24T02:57:27.311Z,431.70
2024-02-24T02:58:27.275Z,438.60
2024-02-24T02:59:27.301Z,429.50
2024-02-24T03:00:27.308Z,395.40
2024-02-24T03:01:27.376Z,472.30
2024-02-24T03:02:27.321Z,467.70
2024-02-24T03:03:27.284Z,448.50
2024-02-24T03:04:27.268Z,419.50
2024-02-24T03:05:27.291Z,391.80
2024-02-24T03:06:27.264Z,417.40
2024-02-24T03:07:27.283Z,407.90
2024-02-24T03:08:27.250Z,417.50
2024-02-24T03:09:27.200Z,414.40
2024-02-24T03:10:27.274Z,391.30
2024-02-24T03:11:27.281Z,397.90
2024-02-24T03:12:27.296Z,400.70
2024-02-24T03:13:27.214Z,377.70
2024-02-24T03:14:27.250Z,346.50
2024-02-24T03:15:27.188Z,315.80
2024-02-24T03:16:28.163Z,305.30
2024-02-24T03:17:27.219Z,306.30
2024-02-24T03:18:27.277Z,306.40
2024-02-24T03:19:27.219Z,290.40
2024-02-24T03:20:27.193Z,294.80
2024-02-24T03:21:27.167Z,316.60
2024-02-24T03:22:27.145Z,333.90
2024-02-24T03:23:27.142Z,381.50
2024-02-24T03:24:27.187Z,406.50
2024-02-24T03:25:27.122Z,416.30
2024-02-24T03:26:27.148Z,446.20
2024-02-24T03:27:27.111Z,436.70
2024-02-24T03:28:27.095Z,447.30
2024-02-24T03:29:27.105Z,466.20
2024-02-24T03:30:27.122Z,464.60
2024-02-24T03:31:27.092Z,471.40
2024-02-24T03:32:27.154Z,447.60
2024-02-24T03:33:27.155Z,458.90
2024-02-24T03:34:27.116Z,462.30
2024-02-24T03:35:27.076Z,471.70
2024-02-24T03:36:27.030Z,480.20
2024-02-24T03:37:27.024Z,493.10
2024-02-24T03:38:27.099Z,503.00
2024-02-24T03:39:27.038Z,511.30
2024-02-24T03:40:27.043Z,497.90
2024-02-24T03:41:27.047Z,501.50
2024-02-24T03:42:26.989Z,494.70
2024-02-24T03:43:26.986Z,497.60
2024-02-24T03:44:27.012Z,493.60
2024-02-24T03:45:27.059Z,487.60
2024-02-24T03:46:26.981Z,473.60
2024-02-24T03:47:27.063Z,467.90
2024-02-24T03:48:27.050Z,459.10
2024-02-24T03:49:27.138Z,483.20
2024-02-24T03:50:26.986Z,495.00
2024-02-24T03:51:26.958Z,473.60
2024-02-24T03:52:26.949Z,478.40
2024-02-24T03:53:26.982Z,483.30
2024-02-24T03:54:26.942Z,503.90
2024-02-24T03:55:26.920Z,484.60
2024-02-24T03:56:26.974Z,472.90
2024-02-24T03:57:26.918Z,463.70
2024-02-24T03:58:26.887Z,467.00
2024-02-24T03:59:26.917Z,470.70
2024-02-24T04:00:26.872Z,452.60
2024-02-24T04:01:26.878Z,442.80
2024-02-24T04:02:26.935Z,451.00
2024-02-24T04:03:26.888Z,437.50
2024-02-24T04:04:26.881Z,445.40
2024-02-24T04:05:26.946Z,443.20
2024-02-24T04:06:26.884Z,438.80
2024-02-24T04:07:26.822Z,459.00
2024-02-24T04:08:26.856Z,470.70
2024-02-24T04:09:26.885Z,465.00
2024-02-24T04:10:26.852Z,470.60
2024-02-24T04:11:26.857Z,464.90
2024-02-24T04:12:26.868Z,451.00
2024-02-24T04:13:26.794Z,446.30
2024-02-24T04:14:26.855Z,453.40
2024-02-24T04:15:26.806Z,469.10
2024-02-24T04:16:26.768Z,460.90
2024-02-24T04:17:26.777Z,461.80
2024-02-24T04:18:26.851Z,470.50
2024-02-24T04:19:26.857Z,467.50
2024-02-24T04:20:26.820Z,471.10
2024-02-24T04:21:26.763Z,443.40
2024-02-24T04:22:26.754Z,436.30
2024-02-24T04:23:26.785Z,439.00
2024-02-24T04:24:26.734Z,474.50
2024-02-24T04:25:26.721Z,473.70
2024-02-24T04:26:26.798Z,497.70
2024-02-24T04:27:26.718Z,470.30
2024-02-24T04:28:26.783Z,495.00
2024-02-24T04:29:26.719Z,502.50
2024-02-24T04:30:27.254Z,487.30
2024-02-24T04:31:26.748Z,508.20
2024-02-24T04:32:26.815Z,511.90
2024-02-24T04:33:27.308Z,493.70
2024-02-24T04:34:26.723Z,521.10
2024-02-24T04:35:26.780Z,488.40
2024-02-24T04:36:26.649Z,498.80
2024-02-24T04:37:26.696Z,481.60
2024-02-24T04:38:26.637Z,468.30
2024-02-24T04:39:26.677Z,455.30
2024-02-24T04:40:26.659Z,402.10
2024-02-24T04:41:26.724Z,414.10
2024-02-24T04:42:26.609Z,386.00
2024-02-24T04:43:26.612Z,415.90
2024-02-24T04:44:26.606Z,398.50
2024-02-24T04:45:26.619Z,356.60
2024-02-24T04:46:26.578Z,352.10
2024-02-24T04:47:26.669Z,350.90
2024-02-24T04:48:26.661Z,330.00
2024-02-24T04:49:26.576Z,357.00
2024-02-24T04:50:26.704Z,358.80
2024-02-24T04:51:26.552Z,369.70
2024-02-24T04:52:26.537Z,383.50
2024-02-24T04:53:26.562Z,425.70
2024-02-24T04:54:26.519Z,437.80
2024-02-24T04:55:26.565Z,471.00
2024-02-24T04:56:26.552Z,408.60
2024-02-24T04:57:26.509Z,378.20
2024-02-24T04:58:26.557Z,442.30
2024-02-24T04:59:26.605Z,423.20
2024-02-24T05:00:26.514Z,411.50
2024-02-24T05:01:26.533Z,389.60
2024-02-24T05:02:26.557Z,356.70
2024-02-24T05:03:26.539Z,413.60
2024-02-24T05:04:26.575Z,342.20
2024-02-24T05:05:26.490Z,289.30
2024-02-24T05:06:26.547Z,400.20
2024-02-24T05:07:26.468Z,349.50
2024-02-24T05:08:26.510Z,296.10
2024-02-24T05:09:26.531Z,264.10
2024-02-24T05:10:26.477Z,283.00
2024-02-24T05:11:26.529Z,302.80
2024-02-24T05:12:26.992Z,232.90
2024-02-24T05:13:26.416Z,272.30
2024-02-24T05:14:26.401Z,283.30
2024-02-24T05:15:26.411Z,291.60
2024-02-24T05:16:26.402Z,226.20
2024-02-24T05:17:26.396Z,212.80
2024-02-24T05:18:26.524Z,179.60
2024-02-24T05:19:26.410Z,214.10
2024-02-24T05:20:26.454Z,198.60
2024-02-24T05:21:26.420Z,192.60
2024-02-24T05:22:26.353Z,223.40
2024-02-24T05:23:26.397Z,203.50
2024-02-24T05:24:26.370Z,220.50
2024-02-24T05:25:26.341Z,191.50
2024-02-24T05:26:26.371Z,160.90
2024-02-24T05:27:26.377Z,181.80
2024-02-24T05:28:26.296Z,220.90
2024-02-24T05:29:26.353Z,205.10
2024-02-24T05:30:26.313Z,235.50
2024-02-24T05:31:26.285Z,232.00
2024-02-24T05:32:26.425Z,226.60
2024-02-24T05:33:26.512Z,170.70
2024-02-24T05:34:26.444Z,219.90
2024-02-24T05:35:26.283Z,186.30
2024-02-24T05:36:26.271Z,200.70
2024-02-24T05:37:26.283Z,162.90
2024-02-24T05:38:26.290Z,205.30
2024-02-24T05:39:26.272Z,149.00
2024-02-24T05:40:26.253Z,155.80
2024-02-24T05:41:26.259Z,148.70
2024-02-24T05:42:26.210Z,238.20
2024-02-24T05:43:26.222Z,227.90
2024-02-24T05:44:26.300Z,260.80
2024-02-24T05:45:26.198Z,302.40
2024-02-24T05:46:26.242Z,323.00
2024-02-24T05:47:26.290Z,286.90
2024-02-24T05:48:26.246Z,358.40
2024-02-24T05:49:26.253Z,332.40
2024-02-24T05:50:26.226Z,335.90
2024-02-24T05:51:26.249Z,318.10
2024-02-24T05:52:26.172Z,293.20
2024-02-24T05:53:26.175Z,219.80
2024-02-24T05:54:26.186Z,256.50
2024-02-24T05:55:26.147Z,276.30
2024-02-24T05:56:26.187Z,256.50
2024-02-24T05:57:26.147Z,297.30
2024-02-24T05:58:27.753Z,310.20
2024-02-24T05:59:26.187Z,333.90
2024-02-24T06:00:26.161Z,345.50
2024-02-24T06:01:26.095Z,332.00
2024-02-24T06:02:26.166Z,327.40
2024-02-24T06:03:26.188Z,328.60
2024-02-24T06:04:26.094Z,339.00
2024-02-24T06:05:26.130Z,341.20
2024-02-24T06:06:26.186Z,292.50
2024-02-24T06:07:26.108Z,314.10
2024-02-24T06:08:26.128Z,234.90
2024-02-24T06:09:26.081Z,278.00
2024-02-24T06:10:26.058Z,296.70
2024-02-24T06:11:26.143Z,242.30
2024-02-24T06:12:26.060Z,257.50
2024-02-24T06:13:26.065Z,239.50
2024-02-24T06:14:26.041Z,229.10
2024-02-24T06:15:26.073Z,233.20
2024-02-24T06:16:26.035Z,251.50
2024-02-24T06:17:26.048Z,193.00
2024-02-24T06:18:26.153Z,210.30
2024-02-24T06:19:26.009Z,214.90
2024-02-24T06:20:26.036Z,195.30
2024-02-24T06:21:26.069Z,207.10
2024-02-24T06:22:26.030Z,180.40
2024-02-24T06:23:26.068Z,187.90
2024-02-24T06:24:26.011Z,175.40
2024-02-24T06:25:25.991Z,167.30
2024-02-24T06:26:26.070Z,142.90
2024-02-24T06:27:25.962Z,122.70
2024-02-24T06:28:26.025Z,122.80
2024-02-24T06:29:26.019Z,165.30
2024-02-24T06:30:25.945Z,106.90
2024-02-24T06:31:25.995Z,111.30
2024-02-24T06:32:26.017Z,140.90
2024-02-24T06:33:26.077Z,99.00
2024-02-24T06:34:25.948Z,109.00
2024-02-24T06:35:26.929Z,132.60
2024-02-24T06:36:25.884Z,146.30
2024-02-24T06:37:25.921Z,118.70
2024-02-24T06:38:25.957Z,135.00
2024-02-24T06:39:25.954Z,105.30
2024-02-24T06:40:33.193Z,95.30
2024-02-24T06:41:28.880Z,85.70
2024-02-24T06:42:25.874Z,167.50
2024-02-24T06:43:25.861Z,91.90
2024-02-24T06:44:25.889Z,78.10
2024-02-24T06:45:25.923Z,73.90
2024-02-24T06:46:25.820Z,85.40
2024-02-24T06:47:29.383Z,54.30
2024-02-24T06:48:25.932Z,58.50
2024-02-24T06:49:25.900Z,71.90
2024-02-24T06:50:25.894Z,95.00
2024-02-24T06:51:25.816Z,105.90
2024-02-24T06:52:25.858Z,124.00
2024-02-24T06:53:25.823Z,124.60
2024-02-24T06:54:25.803Z,112.70
2024-02-24T06:55:25.799Z,88.70
2024-02-24T06:56:25.792Z,72.60
2024-02-24T06:57:25.776Z,72.40
2024-02-24T06:58:25.814Z,51.80
2024-02-24T06:59:25.835Z,46.70
2024-02-24T07:00:25.780Z,43.60
2024-02-24T07:01:25.777Z,39.70
2024-02-24T07:02:25.819Z,29.60
2024-02-24T07:03:25.873Z,26.90
2024-02-24T07:04:25.715Z,26.70
2024-02-24T07:05:25.845Z,31.00
2024-02-24T07:06:27.272Z,40.80
2024-02-24T07:07:25.738Z,51.70
2024-02-24T07:08:25.739Z,57.40
2024-02-24T07:09:25.725Z,81.80
2024-02-24T07:10:25.730Z,109.60
2024-02-24T07:11:25.749Z,148.50
2024-02-24T07:12:25.729Z,145.20
2024-02-24T07:13:25.702Z,144.40
2024-02-24T07:14:25.704Z,128.20
2024-02-24T07:15:26.731Z,108.00
2024-02-24T07:16:25.658Z,87.50
2024-02-24T07:17:25.713Z,68.80
2024-02-24T07:18:25.808Z,58.00
2024-02-24T07:19:25.678Z,107.50
2024-02-24T07:20:25.676Z,128.50
2024-02-24T07:21:25.619Z,134.70
2024-02-24T07:22:25.637Z,143.10
2024-02-24T07:23:25.605Z,53.20
2024-02-24T07:24:25.605Z,53.80
2024-02-24T07:25:25.627Z,49.60
2024-02-24T07:26:25.666Z,67.50
2024-02-24T07:27:25.627Z,58.50
2024-02-24T07:28:25.589Z,65.90
2024-02-24T07:29:25.609Z,75.90
2024-02-24T07:30:25.599Z,80.60
2024-02-24T07:31:25.551Z,101.90
2024-02-24T07:32:25.588Z,96.10
2024-02-24T07:33:25.669Z,100.30
2024-02-24T07:34:25.664Z,105.80
2024-02-24T07:35:25.613Z,103.00
2024-02-24T07:36:25.559Z,99.10
2024-02-24T07:37:25.536Z,96.30
2024-02-24T07:38:25.553Z,100.90
2024-02-24T07:39:25.533Z,99.20
2024-02-24T07:40:25.515Z,101.90
2024-02-24T07:41:25.516Z,88.00
2024-02-24T07:42:25.485Z,65.20
2024-02-24T07:43:25.515Z,57.00
2024-02-24T07:44:25.552Z,75.50
2024-02-24T07:45:25.475Z,88.90
2024-02-24T07:46:26.233Z,104.70
2024-02-24T07:47:25.542Z,117.70
2024-02-24T07:48:25.516Z,123.30
2024-02-24T07:49:25.510Z,126.90
2024-02-24T07:50:25.600Z,137.40
2024-02-24T07:51:25.477Z,127.40
2024-02-24T07:52:25.438Z,101.60
2024-02-24T07:53:25.445Z,89.60
2024-02-24T07:54:25.415Z,52.60
2024-02-24T07:55:25.432Z,30.10
2024-02-24T07:56:25.481Z,49.60
2024-02-24T07:57:25.530Z,111.50
2024-02-24T07:58:25.391Z,130.30
2024-02-24T07:59:25.517Z,151.50
2024-02-24T08:00:25.388Z,155.40
2024-02-24T08:01:26.403Z,129.50
2024-02-24T08:02:26.500Z,111.80
2024-02-24T08:03:26.214Z,104.50
2024-02-24T08:04:25.419Z,106.20
2024-02-24T08:05:25.411Z,126.90
2024-02-24T08:06:25.461Z,138.60
2024-02-24T08:07:25.448Z,154.00
2024-02-24T08:08:25.400Z,154.20
2024-02-24T08:09:25.454Z,146.50
2024-02-24T08:10:25.327Z,154.80
2024-02-24T08:11:25.534Z,143.10
2024-02-24T08:12:25.525Z,125.90
2024-02-24T08:13:25.299Z,73.60
2024-02-24T08:14:25.357Z,54.90
2024-02-24T08:15:25.295Z,60.30
2024-02-24T08:16:25.349Z,37.90
2024-02-24T08:17:25.378Z,43.90
2024-02-24T08:18:26.410Z,49.60
2024-02-24T08:19:25.332Z,53.50
2024-02-24T08:20:25.374Z,46.90
2024-02-24T08:21:25.285Z,61.40
2024-02-24T08:22:25.261Z,62.50
2024-02-24T08:23:26.260Z,55.10
2024-02-24T08:24:25.253Z,57.80
2024-02-24T08:25:25.231Z,49.40
2024-02-24T08:26:25.282Z,54.70
2024-02-24T08:27:25.218Z,54.80
2024-02-24T08:28:25.550Z,35.10
2024-02-24T08:29:25.252Z,27.90
2024-02-24T08:30:26.256Z,37.60
2024-02-24T08:31:25.201Z,29.60
2024-02-24T08:32:25.288Z,28.30
2024-02-24T08:33:26.803Z,30.80
2024-02-24T08:34:25.183Z,31.20
2024-02-24T08:35:25.256Z,35.60
2024-02-24T08:36:25.293Z,32.60
2024-02-24T08:37:25.521Z,31.00
2024-02-24T08:38:25.206Z,29.50
2024-02-24T08:39:25.180Z,54.40
2024-02-24T08:40:26.666Z,52.30
2024-02-24T08:41:25.157Z,60.40
2024-02-24T08:42:25.173Z,62.70
2024-02-24T08:43:25.195Z,54.70
2024-02-24T08:44:25.189Z,50.70
2024-02-24T08:45:25.213Z,59.90
2024-02-24T08:46:25.507Z,78.00
2024-02-24T08:47:25.195Z,54.60
2024-02-24T08:48:25.153Z,68.50
2024-02-24T08:49:25.160Z,68.90
2024-02-24T08:50:25.152Z,71.60
2024-02-24T08:51:25.070Z,68.20
2024-02-24T08:52:32.807Z,75.60
2024-02-24T08:53:27.080Z,76.40
2024-02-24T08:54:25.067Z,72.40
2024-02-24T08:55:25.068Z,77.20
2024-02-24T08:56:25.102Z,66.70
2024-02-24T08:57:25.049Z,69.60
2024-02-24T08:58:25.057Z,80.90
2024-02-24T08:59:25.070Z,80.30
2024-02-24T09:00:25.068Z,100.80
2024-02-24T09:01:25.164Z,79.90
2024-02-24T09:02:25.046Z,53.30
2024-02-24T09:03:25.398Z,74.50
2024-02-24T09:04:26.002Z,80.00
2024-02-24T09:05:25.105Z,75.20
2024-02-24T09:06:25.180Z,71.70
2024-02-24T09:07:25.096Z,62.00
2024-02-24T09:08:25.004Z,73.50
2024-02-24T09:09:24.985Z,47.20
2024-02-24T09:10:25.598Z,49.20
2024-02-24T09:11:25.068Z,46.50
2024-02-24T09:12:25.050Z,37.00
2024-02-24T09:13:25.961Z,36.00
2024-02-24T09:14:25.023Z,19.20
2024-02-24T09:15:24.932Z,25.80
2024-02-24T09:16:24.935Z,28.80
2024-02-24T09:17:25.003Z,17.80
2024-02-24T09:18:25.067Z,22.40
2024-02-24T09:19:24.938Z,32.50
2024-02-24T09:20:24.983Z,26.30
2024-02-24T09:21:24.919Z,30.70
2024-02-24T09:22:24.939Z,60.60
2024-02-24T09:23:24.988Z,36.60
2024-02-24T09:24:24.903Z,31.20
2024-02-24T09:25:24.877Z,39.50
2024-02-24T09:26:24.906Z,38.70
2024-02-24T09:27:24.971Z,40.00
2024-02-24T09:28:24.908Z,40.50
2024-02-24T09:29:24.961Z,44.40
2024-02-24T09:30:24.892Z,45.90
2024-02-24T09:31:24.865Z,40.40
2024-02-24T09:32:24.943Z,41.40
2024-02-24T09:33:24.994Z,48.30
2024-02-24T09:34:24.941Z,40.70
2024-02-24T09:35:24.823Z,41.30
2024-02-24T09:36:24.802Z,39.90
2024-02-24T09:37:24.941Z,37.30
2024-02-24T09:38:24.840Z,27.20
2024-02-24T09:39:24.804Z,20.40
2024-02-24T09:40:24.784Z,25.00
2024-02-24T09:41:24.824Z,23.90
2024-02-24T09:42:24.821Z,22.00
2024-02-24T09:43:24.770Z,16.80
2024-02-24T09:44:26.523Z,17.70
2024-02-24T09:45:24.810Z,18.50
2024-02-24T09:46:24.757Z,39.10
2024-02-24T09:47:24.794Z,70.20
2024-02-24T09:48:24.962Z,56.90
2024-02-24T09:49:24.751Z,33.60
2024-02-24T09:50:25.783Z,38.80
2024-02-24T09:51:24.716Z,81.30
2024-02-24T09:52:24.792Z,82.80
2024-02-24T09:53:24.775Z,76.50
2024-02-24T09:54:24.693Z,73.10
2024-02-24T09:55:24.747Z,133.60
2024-02-24T09:56:24.783Z,107.00
2024-02-24T09:57:24.667Z,76.50
2024-02-24T09:58:24.694Z,106.80
2024-02-24T09:59:24.723Z,73.80
2024-02-24T10:00:24.669Z,76.30
2024-02-24T10:01:24.726Z,47.20
2024-02-24T10:02:24.695Z,81.90
2024-02-24T10:03:24.689Z,46.40
2024-02-24T10:04:24.644Z,44.20
2024-02-24T10:05:24.768Z,42.70
2024-02-24T10:06:24.764Z,54.10
2024-02-24T10:07:25.279Z,63.70
2024-02-24T10:08:24.636Z,56.00
2024-02-24T10:09:24.594Z,46.80
2024-02-24T10:10:24.619Z,26.50
2024-02-24T10:11:24.691Z,24.80
2024-02-24T10:12:24.606Z,27.60
2024-02-24T10:13:24.578Z,26.70
2024-02-24T10:14:24.635Z,30.40
2024-02-24T10:15:24.621Z,40.80
2024-02-24T10:16:24.591Z,77.10
2024-02-24T10:17:24.607Z,76.50
2024-02-24T10:18:24.625Z,105.60
2024-02-24T10:19:26.409Z,110.40
2024-02-24T10:20:25.579Z,100.30
2024-02-24T10:21:24.735Z,112.60
2024-02-24T10:22:26.539Z,125.60
2024-02-24T10:23:24.588Z,118.90
2024-02-24T10:24:24.513Z,88.20
2024-02-24T10:25:24.638Z,60.80
2024-02-24T10:26:24.544Z,55.70
2024-02-24T10:27:24.500Z,43.60
2024-02-24T10:28:24.490Z,52.50
2024-02-24T10:29:24.527Z,41.10
2024-02-24T10:30:26.203Z,34.00
2024-02-24T10:31:24.518Z,34.10
2024-02-24T10:32:24.515Z,20.80
2024-02-24T10:33:24.765Z,21.50
2024-02-24T10:34:24.487Z,27.90
2024-02-24T10:35:24.544Z,33.10
2024-02-24T10:36:24.494Z,33.00
2024-02-24T10:37:24.442Z,47.40
2024-02-24T10:38:34.418Z,77.50
2024-02-24T10:39:25.496Z,52.00
2024-02-24T10:40:25.268Z,53.80
2024-02-24T10:41:29.252Z,71.00
2024-02-24T10:42:24.412Z,49.60
2024-02-24T10:43:25.216Z,37.60
2024-02-24T10:44:24.422Z,49.90
2024-02-24T10:45:24.388Z,60.80
2024-02-24T10:46:24.395Z,53.70
2024-02-24T10:47:24.384Z,46.70
2024-02-24T10:48:24.477Z,42.80
2024-02-24T10:49:24.558Z,27.20
2024-02-24T10:50:24.376Z,19.40
2024-02-24T10:51:24.382Z,42.80
2024-02-24T10:52:24.346Z,22.40
2024-02-24T10:53:24.530Z,17.00
2024-02-24T10:54:24.351Z,18.70
2024-02-24T10:55:24.344Z,20.90
2024-02-24T10:56:24.362Z,16.60
2024-02-24T10:57:24.319Z,19.90
2024-02-24T10:58:24.318Z,23.20
2024-02-24T10:59:24.371Z,23.00
2024-02-24T11:00:24.348Z,19.30
2024-02-24T11:01:24.334Z,23.90
2024-02-24T11:02:24.366Z,32.60
2024-02-24T11:03:24.269Z,28.50
2024-02-24T11:04:24.280Z,33.60
2024-02-24T11:05:24.289Z,38.20
2024-02-24T11:06:24.301Z,43.40
2024-02-24T11:07:24.497Z,43.50
2024-02-24T11:08:24.257Z,39.00
2024-02-24T11:09:24.249Z,41.30
2024-02-24T11:10:24.322Z,55.80
2024-02-24T11:11:24.272Z,39.70
2024-02-24T11:12:24.648Z,61.40
2024-02-24T11:13:24.244Z,58.50
2024-02-24T11:14:24.242Z,28.90
2024-02-24T11:15:24.201Z,43.10
2024-02-24T11:16:24.209Z,21.20
2024-02-24T11:17:24.208Z,29.60
2024-02-24T11:18:24.284Z,33.70
2024-02-24T11:19:24.212Z,23.70
2024-02-24T11:20:24.207Z,40.00
2024-02-24T11:21:24.153Z,33.30
2024-02-24T11:22:24.236Z,42.50
2024-02-24T11:23:24.273Z,36.20
2024-02-24T11:24:24.143Z,50.20
2024-02-24T11:25:24.182Z,43.60
2024-02-24T11:26:24.193Z,35.80
2024-02-24T11:27:24.164Z,60.20
2024-02-24T11:28:24.137Z,67.30
2024-02-24T11:29:24.825Z,63.60
2024-02-24T11:30:24.164Z,35.90
2024-02-24T11:31:26.040Z,69.00
2024-02-24T11:32:25.224Z,53.70
2024-02-24T11:33:24.350Z,48.30
2024-02-24T11:34:24.192Z,31.60
2024-02-24T11:35:25.540Z,24.60
2024-02-24T11:36:24.104Z,20.30
2024-02-24T11:37:24.100Z,17.90
2024-02-24T11:38:24.160Z,19.10
2024-02-24T11:39:25.847Z,20.00
2024-02-24T11:40:24.051Z,25.10
2024-02-24T11:41:24.090Z,38.90
2024-02-24T11:42:24.029Z,34.90
2024-02-24T11:43:24.032Z,22.10
2024-02-24T11:44:27.798Z,7.60
2024-02-24T11:45:24.036Z,13.70
2024-02-24T11:46:24.022Z,39.90
2024-02-24T11:47:27.884Z,59.40
2024-02-24T11:48:24.269Z,55.00
2024-02-24T11:49:24.040Z,14.80
2024-02-24T11:50:24.073Z,5.60
2024-02-24T11:51:24.023Z,9.10
2024-02-24T11:52:23.985Z,12.20
2024-02-24T11:53:23.996Z,6.70
2024-02-24T11:54:23.993Z,3.60
2024-02-24T11:55:24.079Z,3.70
2024-02-24T11:56:24.008Z,5.50
2024-02-24T11:57:25.006Z,4.20
2024-02-24T11:58:24.029Z,8.20
2024-02-24T11:59:23.943Z,7.40
2024-02-24T12:00:23.975Z,16.30
2024-02-24T12:01:24.014Z,7.50
2024-02-24T12:02:23.963Z,4.80
2024-02-24T12:03:25.538Z,5.20
2024-02-24T12:04:24.939Z,9.10
2024-02-24T12:05:23.981Z,2.80
2024-02-24T12:06:23.971Z,1.60
2024-02-24T12:07:23.966Z,3.70
2024-02-24T12:08:23.909Z,7.10
2024-02-24T12:09:23.889Z,7.10
2024-02-24T12:10:23.883Z,6.90
2024-02-24T12:11:23.942Z,3.10
2024-02-24T12:12:23.960Z,6.70
2024-02-24T12:13:23.841Z,4.60
2024-02-24T12:14:23.864Z,9.50
2024-02-24T12:15:23.816Z,9.40
2024-02-24T12:16:23.845Z,7.90
2024-02-24T12:17:23.932Z,5.90
2024-02-24T12:18:24.262Z,6.60
2024-02-24T12:19:23.860Z,9.00
2024-02-24T12:20:23.814Z,5.70
2024-02-24T12:21:23.801Z,5.10
2024-02-24T12:22:23.778Z,6.80
2024-02-24T12:23:23.813Z,9.60
2024-02-24T12:24:23.776Z,13.50
2024-02-24T12:25:23.888Z,14.80
2024-02-24T12:26:23.794Z,12.50
2024-02-24T12:27:23.763Z,21.10
2024-02-24T12:28:23.782Z,31.50
2024-02-24T12:29:23.779Z,37.20
2024-02-24T12:30:23.810Z,28.90
2024-02-24T12:31:23.761Z,17.50
2024-02-24T12:32:23.747Z,11.70
2024-02-24T12:33:23.865Z,11.80
2024-02-24T12:34:23.876Z,42.20
2024-02-24T12:35:23.931Z,41.50
2024-02-24T12:36:23.761Z,12.00
2024-02-24T12:37:23.714Z,41.00
2024-02-24T12:38:23.729Z,45.90
2024-02-24T12:39:23.700Z,3.90